createdAt,value
2019-04-29T00:05:00.215Z,23.20
2019-04-29T00:10:08.365Z,23.63
2019-04-29T00:15:15.757Z,23.97
2019-04-29T00:20:22.659Z,25.13
2019-04-29T00:25:27.819Z,22.77
2019-04-29T00:30:33.248Z,23.57
2019-04-29T00:35:38.704Z,23.77
2019-04-29T00:41:03.631Z,24.60
2019-04-29T00:46:09.647Z,23.80
2019-04-29T00:51:14.747Z,25.47
2019-04-29T00:56:19.783Z,25.97
2019-04-29T01:01:26.558Z,24.93
2019-04-29T01:06:31.767Z,25.53
2019-04-29T01:11:36.755Z,26.93
2019-04-29T01:16:41.987Z,26.73
2019-04-29T01:21:47.112Z,29.00
2019-04-29T01:26:54.942Z,29.00
2019-04-29T01:32:00.298Z,29.00
2019-04-29T01:37:05.403Z,30.53
2019-04-29T01:42:12.270Z,29.27
2019-04-29T01:47:17.395Z,29.23
2019-04-29T01:52:22.530Z,29.93
2019-04-29T01:57:27.856Z,31.60
2019-04-29T02:02:33.107Z,31.33
2019-04-29T02:07:38.208Z,31.93
2019-04-29T02:12:43.341Z,33.07
2019-04-29T02:17:48.239Z,32.87
2019-04-29T02:22:54.895Z,34.17
2019-04-29T02:28:00.207Z,32.77
2019-04-29T02:33:05.313Z,36.00
2019-04-29T02:38:12.002Z,34.87
2019-04-29T02:43:27.864Z,36.20
2019-04-29T02:48:34.606Z,36.97
2019-04-29T02:53:40.018Z,36.37
2019-04-29T02:58:55.761Z,38.27
2019-04-29T03:04:05.545Z,38.80
2019-04-29T03:09:10.702Z,40.23
2019-04-29T03:14:15.869Z,38.53
2019-04-29T03:19:22.505Z,41.10
2019-04-29T03:24:27.843Z,42.73
2019-04-29T03:29:33.006Z,44.33
2019-04-29T03:34:38.374Z,42.43
2019-04-29T03:39:43.730Z,40.33
2019-04-29T03:44:48.717Z,39.00
2019-04-29T03:49:53.905Z,40.10
2019-04-29T03:54:59.087Z,39.93
2019-04-29T04:00:10.358Z,39.30
2019-04-29T04:05:23.371Z,41.60
2019-04-29T04:10:28.944Z,37.10
2019-04-29T04:15:34.482Z,37.80
2019-04-29T04:20:39.814Z,41.07
2019-04-29T04:25:45.299Z,42.13
2019-04-29T04:30:50.878Z,40.27
2019-04-29T04:35:56.141Z,38.90
2019-04-29T04:41:02.959Z,40.90
2019-04-29T04:46:08.478Z,40.60
2019-04-29T04:51:14.078Z,38.57
2019-04-29T04:56:19.708Z,42.83
2019-04-29T05:01:25.077Z,43.10
2019-04-29T05:06:30.740Z,41.63
2019-04-29T05:11:36.295Z,40.60
2019-04-29T05:16:41.632Z,42.30
2019-04-29T05:21:47.002Z,42.97
2019-04-29T05:26:52.231Z,43.77
2019-04-29T05:31:57.212Z,41.87
2019-04-29T05:37:16.128Z,43.93
2019-04-29T05:42:21.287Z,40.20
2019-04-29T05:47:28.208Z,40.50
2019-04-29T05:52:39.534Z,39.60
2019-04-29T05:57:41.905Z,38.97
2019-04-29T06:02:47.116Z,37.50
2019-04-29T06:07:56.267Z,36.07
2019-04-29T06:12:58.926Z,34.87
2019-04-29T06:18:04.306Z,32.67
2019-04-29T06:23:09.656Z,32.70
2019-04-29T06:28:14.837Z,33.33
2019-04-29T06:33:24.078Z,33.57
2019-04-29T06:38:26.755Z,32.93
2019-04-29T06:43:32.145Z,28.97
2019-04-29T06:48:37.488Z,31.47
2019-04-29T06:53:42.838Z,31.43
2019-04-29T06:58:49.154Z,26.70
2019-04-29T07:03:55.691Z,24.80
2019-04-29T07:09:01.556Z,24.53
2019-04-29T07:14:06.908Z,23.23
2019-04-29T07:19:11.926Z,26.73
2019-04-29T07:24:20.163Z,22.80
2019-04-29T07:29:29.382Z,25.17
2019-04-29T07:34:33.809Z,22.80
2019-04-29T07:39:37.317Z,20.10
2019-04-29T07:44:44.506Z,20.73
2019-04-29T07:49:51.506Z,18.90
2019-04-29T07:54:57.106Z,19.43
2019-04-29T08:00:02.086Z,18.80
2019-04-29T08:05:10.389Z,20.13
2019-04-29T08:10:23.602Z,17.17
2019-04-29T08:15:22.696Z,17.70
2019-04-29T08:20:27.936Z,16.83
2019-04-29T08:25:33.028Z,16.53
2019-04-29T08:30:41.868Z,16.40
2019-04-29T08:35:46.705Z,14.17
2019-04-29T08:40:52.055Z,14.47
2019-04-29T08:46:07.546Z,14.67
2019-04-29T08:51:12.965Z,13.17
2019-04-29T08:56:18.475Z,15.50
2019-04-29T09:01:24.699Z,14.80
2019-04-29T09:06:32.602Z,16.27
2019-04-29T09:11:36.926Z,13.83
2019-04-29T09:16:42.305Z,12.73
2019-04-29T09:21:49.057Z,12.73
2019-04-29T09:26:58.985Z,13.13
2019-04-29T09:32:05.107Z,12.17
2019-04-29T09:37:10.465Z,13.63
2019-04-29T09:42:26.696Z,12.70
2019-04-29T09:47:32.667Z,12.47
2019-04-29T09:52:37.886Z,11.93
2019-04-29T09:57:43.565Z,11.83
2019-04-29T10:02:50.385Z,13.13
2019-04-29T10:07:55.709Z,12.00
2019-04-29T10:13:01.105Z,12.57
2019-04-29T10:18:10.914Z,13.10
2019-04-29T10:23:16.284Z,12.73
2019-04-29T10:28:21.567Z,13.37
2019-04-29T10:33:27.147Z,12.23
2019-04-29T10:38:32.410Z,12.17
2019-04-29T10:43:53.610Z,11.57
2019-04-29T10:49:03.614Z,11.07
2019-04-29T10:54:06.706Z,11.87
2019-04-29T10:59:11.975Z,12.60
2019-04-29T11:04:17.918Z,11.73
2019-04-29T11:09:31.195Z,12.60
2019-04-29T11:14:37.722Z,11.50
2019-04-29T11:19:43.846Z,12.20
2019-04-29T11:25:06.757Z,12.23
2019-04-29T11:30:14.326Z,12.93
2019-04-29T11:35:24.498Z,11.87
2019-04-29T11:40:42.580Z,11.80
2019-04-29T11:45:38.623Z,10.50
2019-04-29T11:50:45.196Z,12.10
2019-04-29T11:55:52.586Z,12.23
2019-04-29T12:01:03.961Z,11.83
2019-04-29T12:06:10.596Z,12.50
2019-04-29T12:11:16.569Z,12.37
2019-04-29T12:16:29.245Z,11.63
2019-04-29T12:21:36.156Z,11.37
2019-04-29T12:26:44.349Z,13.30
2019-04-29T12:31:58.231Z,12.10
2019-04-29T12:37:05.385Z,12.77
2019-04-29T12:42:28.330Z,12.57
2019-04-29T12:47:34.989Z,13.07
2019-04-29T12:52:40.447Z,13.30
2019-04-29T12:57:45.845Z,12.00
2019-04-29T13:02:59.849Z,12.83
2019-04-29T13:08:15.758Z,13.33
2019-04-29T13:13:22.016Z,11.83
2019-04-29T13:18:29.197Z,11.53
2019-04-29T13:23:39.345Z,10.73
2019-04-29T13:28:59.282Z,12.17
2019-04-29T13:33:51.074Z,11.50
2019-04-29T13:38:55.888Z,11.57
2019-04-29T13:44:07.024Z,11.00
2019-04-29T13:49:17.008Z,12.00
2019-04-29T13:54:22.285Z,12.10
2019-04-29T13:59:42.107Z,11.77
2019-04-29T14:04:49.450Z,11.70
2019-04-29T14:09:54.830Z,11.17
2019-04-29T14:15:00.239Z,12.10
2019-04-29T14:20:10.832Z,11.03
2019-04-29T14:25:14.707Z,11.57
2019-04-29T14:30:21.526Z,12.77
2019-04-29T14:35:47.628Z,10.67
2019-04-29T14:40:50.177Z,11.97
2019-04-29T14:45:56.809Z,11.57
2019-04-29T14:51:02.546Z,12.57
2019-04-29T14:56:07.577Z,11.33
2019-04-29T15:01:17.075Z,11.97
2019-04-29T15:06:22.091Z,11.50
2019-04-29T15:11:31.834Z,11.53
2019-04-29T15:16:40.707Z,11.43
2019-04-29T15:21:48.181Z,12.03
2019-04-29T15:26:53.698Z,11.17
2019-04-29T15:31:58.666Z,11.17
2019-04-29T15:37:04.074Z,10.40
2019-04-29T15:42:09.311Z,9.87
2019-04-29T15:47:14.912Z,10.80
2019-04-29T15:52:20.888Z,8.50
2019-04-29T15:57:27.256Z,10.10
2019-04-29T16:02:35.886Z,9.93
2019-04-29T16:07:46.306Z,9.77
2019-04-29T16:13:05.427Z,9.20
2019-04-29T16:18:14.420Z,9.50
2019-04-29T16:23:17.349Z,9.43
2019-04-29T16:28:31.596Z,8.43
2019-04-29T16:33:32.046Z,10.67
2019-04-29T16:38:37.025Z,9.53
2019-04-29T16:43:44.328Z,10.40
2019-04-29T16:48:49.416Z,7.53
2019-04-29T16:53:54.917Z,8.33
2019-04-29T16:59:08.886Z,8.87
2019-04-29T17:04:07.026Z,7.80
2019-04-29T17:09:22.472Z,9.50
2019-04-29T17:14:20.648Z,7.33
2019-04-29T17:19:26.032Z,7.13
2019-04-29T17:24:31.395Z,7.00
2019-04-29T17:34:58.682Z,7.43
2019-04-29T17:35:14.704Z,7.37
2019-04-29T17:39:56.199Z,6.70
2019-04-29T17:45:10.570Z,8.27
2019-04-29T17:50:30.149Z,6.93
2019-04-29T17:55:46.042Z,6.93
2019-04-29T18:01:08.802Z,7.53
2019-04-29T18:06:24.313Z,6.80
2019-04-29T18:11:26.285Z,7.50
2019-04-29T18:16:39.435Z,7.03
2019-04-29T18:21:56.871Z,7.43
2019-04-29T18:27:09.268Z,8.03
2019-04-29T18:32:15.538Z,6.60
2019-04-29T18:37:21.337Z,6.97
2019-04-29T18:42:27.769Z,6.33
2019-04-29T18:47:35.430Z,7.90
2019-04-29T18:52:40.408Z,6.47
2019-04-29T18:57:45.970Z,7.47
2019-04-29T19:02:57.225Z,7.27
2019-04-29T19:08:11.270Z,6.50
2019-04-29T19:13:12.719Z,7.90
2019-04-29T19:18:17.491Z,7.40
2019-04-29T19:23:22.352Z,7.60
2019-04-29T19:28:31.054Z,6.53
2019-04-29T19:33:35.655Z,7.57
2019-04-29T19:38:43.257Z,7.50
2019-04-29T19:43:54.846Z,8.13
2019-04-29T19:48:58.292Z,6.93
2019-04-29T19:54:01.722Z,6.83
2019-04-29T19:59:26.849Z,7.50
2019-04-29T20:04:40.185Z,7.07
2019-04-29T20:09:48.221Z,7.43
2019-04-29T20:14:58.671Z,7.53
2019-04-29T20:20:17.594Z,7.33
2019-04-29T20:25:31.030Z,7.03
2019-04-29T20:30:30.947Z,7.20
2019-04-29T20:35:40.278Z,6.90
2019-04-29T20:40:43.666Z,7.07
2019-04-29T20:45:49.496Z,8.00
2019-04-29T20:50:56.484Z,6.60
2019-04-29T20:56:10.409Z,7.30
2019-04-29T21:01:11.444Z,7.17
2019-04-29T21:06:17.088Z,6.90
2019-04-29T21:11:25.723Z,6.97
2019-04-29T21:16:32.809Z,7.53
2019-04-29T21:21:41.767Z,6.73
2019-04-29T21:26:46.044Z,6.90
2019-04-29T21:31:58.388Z,7.07
2019-04-29T21:37:01.608Z,6.90
2019-04-29T21:42:17.328Z,7.07
2019-04-29T21:47:25.055Z,6.47
2019-04-29T21:52:30.190Z,6.93
2019-04-29T21:57:35.379Z,7.30
2019-04-29T22:02:41.474Z,6.77
2019-04-29T22:07:47.574Z,6.23
2019-04-29T22:12:58.324Z,6.63
2019-04-29T22:18:01.667Z,6.57
2019-04-29T22:23:12.961Z,6.27
2019-04-29T22:28:15.981Z,6.87
2019-04-29T22:33:20.280Z,6.27
2019-04-29T22:38:25.470Z,7.43
2019-04-29T22:43:54.675Z,6.17
2019-04-29T22:49:01.264Z,6.57
2019-04-29T22:54:25.786Z,7.27
2019-04-29T22:59:30.722Z,6.57
2019-04-29T23:04:35.991Z,6.80
2019-04-29T23:09:41.646Z,6.83
2019-04-29T23:14:47.822Z,6.27
2019-04-29T23:19:55.131Z,7.20
2019-04-29T23:25:05.669Z,6.90
2019-04-29T23:30:13.571Z,7.17
2019-04-29T23:35:20.015Z,6.80
2019-04-29T23:40:25.589Z,6.93
2019-04-29T23:45:30.769Z,6.73
2019-04-29T23:50:36.111Z,7.23
2019-04-29T23:55:41.370Z,6.67
